sensor_id;sensor_type;location;lat;lon;timestamp;temperature;humidity
11093;DHT22;5600;50.864;6.102;2023-04-15T00:02:21;3.30;99.90
11093;DHT22;5600;50.864;6.102;2023-04-15T00:05:22;3.20;99.90
11093;DHT22;5600;50.864;6.102;2023-04-15T00:20:27;3.00;99.90
11093;DHT22;5600;50.864;6.102;2023-04-15T00:26:29;3.00;99.90
11093;DHT22;5600;50.864;6.102;2023-04-15T00:29:30;3.10;99.90
11093;DHT22;5600;50.864;6.102;2023-04-15T00:44:38;3.40;99.90
11093;DHT22;5600;50.864;6.102;2023-04-15T00:47:40;3.40;99.90
11093;DHT22;5600;50.864;6.102;2023-04-15T00:53:43;3.40;99.90
11093;DHT22;5600;50.864;6.102;2023-04-15T00:56:44;3.30;99.90
11093;DHT22;5600;50.864;6.102;2023-04-15T01:02:46;3.30;99.90
11093;DHT22;5600;50.864;6.102;2023-04-15T01:05:48;3.30;99.90
11093;DHT22;5600;50.864;6.102;2023-04-15T01:08:49;3.30;99.90
11093;DHT22;5600;50.864;6.102;2023-04-15T01:14:53;3.20;99.90
11093;DHT22;5600;50.864;6.102;2023-04-15T01:23:58;3.20;99.90
11093;DHT22;5600;50.864;6.102;2023-04-15T01:36:07;3.00;99.90
11093;DHT22;5600;50.864;6.102;2023-04-15T01:39:09;3.00;99.90
11093;DHT22;5600;50.864;6.102;2023-04-15T01:42:10;3.00;99.90
11093;DHT22;5600;50.864;6.102;2023-04-15T01:51:14;2.90;99.90
11093;DHT22;5600;50.864;6.102;2023-04-15T02:03:20;2.90;99.90
11093;DHT22;5600;50.864;6.102;2023-04-15T02:15:24;2.80;99.90
11093;DHT22;5600;50.864;6.102;2023-04-15T02:18:25;2.80;99.90
11093;DHT22;5600;50.864;6.102;2023-04-15T02:21:26;2.70;99.90
11093;DHT22;5600;50.864;6.102;2023-04-15T02:24:28;2.70;99.90
11093;DHT22;5600;50.864;6.102;2023-04-15T02:27:30;2.70;99.90
11093;DHT22;5600;50.864;6.102;2023-04-15T02:30:31;2.70;99.90
11093;DHT22;5600;50.864;6.102;2023-04-15T02:33:35;2.80;99.90
11093;DHT22;5600;50.864;6.102;2023-04-15T02:42:41;2.90;99.90
11093;DHT22;5600;50.864;6.102;2023-04-15T02:48:46;2.80;99.90
11093;DHT22;5600;50.864;6.102;2023-04-15T02:57:50;2.70;99.90
11093;DHT22;5600;50.864;6.102;2023-04-15T03:00:50;2.70;99.90
11093;DHT22;5600;50.864;6.102;2023-04-15T03:15:57;2.40;99.90
11093;DHT22;5600;50.864;6.102;2023-04-15T03:18:58;2.40;99.90
11093;DHT22;5600;50.864;6.102;2023-04-15T03:25:00;2.30;99.90
11093;DHT22;5600;50.864;6.102;2023-04-15T03:28:02;2.20;99.90
11093;DHT22;5600;50.864;6.102;2023-04-15T03:31:03;2.20;99.90
11093;DHT22;5600;50.864;6.102;2023-04-15T03:34:04;2.10;99.90
11093;DHT22;5600;50.864;6.102;2023-04-15T03:40:06;2.10;99.90
11093;DHT22;5600;50.864;6.102;2023-04-15T03:43:08;2.10;99.90
11093;DHT22;5600;50.864;6.102;2023-04-15T04:07:17;1.80;99.90
11093;DHT22;5600;50.864;6.102;2023-04-15T04:13:19;1.70;99.90
11093;DHT22;5600;50.864;6.102;2023-04-15T04:22:22;1.70;99.90
11093;DHT22;5600;50.864;6.102;2023-04-15T04:37:28;1.70;99.90
11093;DHT22;5600;50.864;6.102;2023-04-15T04:40:29;1.60;99.90
11093;DHT22;5600;50.864;6.102;2023-04-15T04:46:31;1.60;99.90
11093;DHT22;5600;50.864;6.102;2023-04-15T04:49:32;1.60;99.90
11093;DHT22;5600;50.864;6.102;2023-04-15T05:01:37;1.40;99.90
11093;DHT22;5600;50.864;6.102;2023-04-15T05:25:46;2.00;99.90
11093;DHT22;5600;50.864;6.102;2023-04-15T05:43:52;2.10;99.90
11093;DHT22;5600;50.864;6.102;2023-04-15T05:46:53;2.30;99.90
11093;DHT22;5600;50.864;6.102;2023-04-15T05:58:57;2.70;99.90
11093;DHT22;5600;50.864;6.102;2023-04-15T06:05:00;3.10;99.90
11093;DHT22;5600;50.864;6.102;2023-04-15T06:11:02;3.20;99.90
11093;DHT22;5600;50.864;6.102;2023-04-15T06:20:05;3.10;99.90
11093;DHT22;5600;50.864;6.102;2023-04-15T06:26:09;3.20;99.90
11093;DHT22;5600;50.864;6.102;2023-04-15T06:38:13;4.00;99.90
11093;DHT22;5600;50.864;6.102;2023-04-15T06:41:14;4.20;99.90
11093;DHT22;5600;50.864;6.102;2023-04-15T06:44:15;4.50;99.90
11093;DHT22;5600;50.864;6.102;2023-04-15T06:50:17;5.00;99.90
11093;DHT22;5600;50.864;6.102;2023-04-15T06:56:19;5.20;99.90
11093;DHT22;5600;50.864;6.102;2023-04-15T06:59:19;5.40;99.90
11093;DHT22;5600;50.864;6.102;2023-04-15T07:02:20;5.70;99.90
11093;DHT22;5600;50.864;6.102;2023-04-15T07:08:22;6.20;99.90
11093;DHT22;5600;50.864;6.102;2023-04-15T07:11:25;6.60;99.90
11093;DHT22;5600;50.864;6.102;2023-04-15T07:14:25;7.00;99.90
11093;DHT22;5600;50.864;6.102;2023-04-15T07:20:28;7.80;99.90
11093;DHT22;5600;50.864;6.102;2023-04-15T07:23:29;8.40;99.90
11093;DHT22;5600;50.864;6.102;2023-04-15T07:26:29;8.80;99.90
11093;DHT22;5600;50.864;6.102;2023-04-15T07:29:30;9.20;99.90
11093;DHT22;5600;50.864;6.102;2023-04-15T07:32:31;9.20;99.90
11093;DHT22;5600;50.864;6.102;2023-04-15T07:35:32;9.70;99.90
11093;DHT22;5600;50.864;6.102;2023-04-15T07:38:32;10.00;99.90
11093;DHT22;5600;50.864;6.102;2023-04-15T07:41:33;10.30;99.90
11093;DHT22;5600;50.864;6.102;2023-04-15T07:44:34;10.70;99.90
11093;DHT22;5600;50.864;6.102;2023-04-15T07:47:35;11.60;99.90
11093;DHT22;5600;50.864;6.102;2023-04-15T07:50:35;11.60;99.90
11093;DHT22;5600;50.864;6.102;2023-04-15T07:53:36;11.70;99.90
11093;DHT22;5600;50.864;6.102;2023-04-15T07:56:37;11.60;99.90
11093;DHT22;5600;50.864;6.102;2023-04-15T07:59:38;11.50;99.90
11093;DHT22;5600;50.864;6.102;2023-04-15T08:02:39;11.30;99.90
11093;DHT22;5600;50.864;6.102;2023-04-15T08:05:39;11.40;99.90
11093;DHT22;5600;50.864;6.102;2023-04-15T08:08:40;11.60;99.90
11093;DHT22;5600;50.864;6.102;2023-04-15T08:11:41;12.20;99.90
11093;DHT22;5600;50.864;6.102;2023-04-15T08:14:41;14.30;99.90
11093;DHT22;5600;50.864;6.102;2023-04-15T08:17:42;13.10;99.90
11093;DHT22;5600;50.864;6.102;2023-04-15T08:20:43;13.10;99.90
11093;DHT22;5600;50.864;6.102;2023-04-15T08:26:45;13.00;99.90
11093;DHT22;5600;50.864;6.102;2023-04-15T08:29:46;13.00;99.90
11093;DHT22;5600;50.864;6.102;2023-04-15T08:32:48;13.00;99.90
11093;DHT22;5600;50.864;6.102;2023-04-15T08:35:48;13.00;99.90
11093;DHT22;5600;50.864;6.102;2023-04-15T08:38:49;13.10;99.90
11093;DHT22;5600;50.864;6.102;2023-04-15T08:42:01;13.40;99.90
11093;DHT22;5600;50.864;6.102;2023-04-15T08:45:04;13.40;99.90
11093;DHT22;5600;50.864;6.102;2023-04-15T08:48:05;13.40;99.90
11093;DHT22;5600;50.864;6.102;2023-04-15T08:51:07;13.10;99.90
11093;DHT22;5600;50.864;6.102;2023-04-15T08:54:09;13.10;99.90
11093;DHT22;5600;50.864;6.102;2023-04-15T08:57:10;13.60;99.90
11093;DHT22;5600;50.864;6.102;2023-04-15T09:00:11;13.80;99.90
11093;DHT22;5600;50.864;6.102;2023-04-15T09:03:13;13.80;99.90
11093;DHT22;5600;50.864;6.102;2023-04-15T09:06:16;13.90;99.90
11093;DHT22;5600;50.864;6.102;2023-04-15T09:09:17;13.70;99.90
11093;DHT22;5600;50.864;6.102;2023-04-15T09:15:19;13.60;99.90
11093;DHT22;5600;50.864;6.102;2023-04-15T09:18:30;14.00;99.90
11093;DHT22;5600;50.864;6.102;2023-04-15T09:21:31;14.20;99.90
11093;DHT22;5600;50.864;6.102;2023-04-15T09:24:38;14.30;99.90
11093;DHT22;5600;50.864;6.102;2023-04-15T09:27:47;14.40;99.90
11093;DHT22;5600;50.864;6.102;2023-04-15T09:30:51;14.40;99.90
11093;DHT22;5600;50.864;6.102;2023-04-15T09:33:55;14.70;99.90
11093;DHT22;5600;50.864;6.102;2023-04-15T09:36:56;12.70;99.90
11093;DHT22;5600;50.864;6.102;2023-04-15T09:39:57;15.20;99.90
11093;DHT22;5600;50.864;6.102;2023-04-15T09:42:58;15.50;99.90
11093;DHT22;5600;50.864;6.102;2023-04-15T09:45:59;14.80;99.90
11093;DHT22;5600;50.864;6.102;2023-04-15T09:49:07;14.80;99.90
11093;DHT22;5600;50.864;6.102;2023-04-15T09:52:08;14.80;99.90
11093;DHT22;5600;50.864;6.102;2023-04-15T09:55:14;14.90;99.90
11093;DHT22;5600;50.864;6.102;2023-04-15T09:58:29;15.40;99.90
11093;DHT22;5600;50.864;6.102;2023-04-15T10:01:30;15.90;99.90
11093;DHT22;5600;50.864;6.102;2023-04-15T10:04:34;16.50;99.90
11093;DHT22;5600;50.864;6.102;2023-04-15T10:07:37;16.00;99.90
11093;DHT22;5600;50.864;6.102;2023-04-15T10:10:40;15.80;99.90
11093;DHT22;5600;50.864;6.102;2023-04-15T10:13:41;16.00;99.90
11093;DHT22;5600;50.864;6.102;2023-04-15T10:16:43;16.30;99.90
11093;DHT22;5600;50.864;6.102;2023-04-15T10:19:48;16.70;99.90
11093;DHT22;5600;50.864;6.102;2023-04-15T10:22:52;17.10;99.90
11093;DHT22;5600;50.864;6.102;2023-04-15T10:25:53;17.00;99.90
11093;DHT22;5600;50.864;6.102;2023-04-15T10:28:54;17.00;99.90
11093;DHT22;5600;50.864;6.102;2023-04-15T10:31:56;16.90;99.90
11093;DHT22;5600;50.864;6.102;2023-04-15T10:34:58;16.80;99.90
11093;DHT22;5600;50.864;6.102;2023-04-15T10:37:59;16.70;99.90
11093;DHT22;5600;50.864;6.102;2023-04-15T10:41:27;16.60;99.50
11093;DHT22;5600;50.864;6.102;2023-04-15T10:44:30;15.90;99.90
11093;DHT22;5600;50.864;6.102;2023-04-15T10:47:31;15.40;99.90
11093;DHT22;5600;50.864;6.102;2023-04-15T10:50:32;15.50;99.90
11093;DHT22;5600;50.864;6.102;2023-04-15T10:53:33;15.70;99.90
11093;DHT22;5600;50.864;6.102;2023-04-15T10:56:33;15.80;99.90
11093;DHT22;5600;50.864;6.102;2023-04-15T10:59:58;15.70;99.90
11093;DHT22;5600;50.864;6.102;2023-04-15T11:03:05;15.30;99.90
11093;DHT22;5600;50.864;6.102;2023-04-15T11:06:07;15.30;99.90
11093;DHT22;5600;50.864;6.102;2023-04-15T11:09:31;15.50;99.90
11093;DHT22;5600;50.864;6.102;2023-04-15T11:12:36;15.40;99.90
11093;DHT22;5600;50.864;6.102;2023-04-15T11:15:41;14.80;99.90
11093;DHT22;5600;50.864;6.102;2023-04-15T11:18:55;15.60;99.90
11093;DHT22;5600;50.864;6.102;2023-04-15T11:21:56;15.60;99.90
11093;DHT22;5600;50.864;6.102;2023-04-15T11:24:57;15.40;99.50
11093;DHT22;5600;50.864;6.102;2023-04-15T11:27:59;15.20;99.90
11093;DHT22;5600;50.864;6.102;2023-04-15T11:31:08;15.10;99.90
11093;DHT22;5600;50.864;6.102;2023-04-15T11:34:10;15.10;99.90
11093;DHT22;5600;50.864;6.102;2023-04-15T11:37:10;15.00;99.90
11093;DHT22;5600;50.864;6.102;2023-04-15T11:40:12;15.30;99.90
11093;DHT22;5600;50.864;6.102;2023-04-15T11:43:19;15.50;99.90
11093;DHT22;5600;50.864;6.102;2023-04-15T11:46:20;16.10;99.90
11093;DHT22;5600;50.864;6.102;2023-04-15T11:49:29;16.10;99.90
11093;DHT22;5600;50.864;6.102;2023-04-15T11:52:34;16.10;99.90
11093;DHT22;5600;50.864;6.102;2023-04-15T11:55:49;16.00;99.90
11093;DHT22;5600;50.864;6.102;2023-04-15T11:58:58;18.10;99.90
11093;DHT22;5600;50.864;6.102;2023-04-15T12:05:04;15.50;99.90
11093;DHT22;5600;50.864;6.102;2023-04-15T12:08:05;15.50;99.90
11093;DHT22;5600;50.864;6.102;2023-04-15T12:11:06;15.50;99.90
11093;DHT22;5600;50.864;6.102;2023-04-15T12:14:26;15.40;99.90
11093;DHT22;5600;50.864;6.102;2023-04-15T12:17:27;15.30;99.90
11093;DHT22;5600;50.864;6.102;2023-04-15T12:20:29;15.30;99.90
11093;DHT22;5600;50.864;6.102;2023-04-15T12:26:44;15.10;99.90
11093;DHT22;5600;50.864;6.102;2023-04-15T12:29:45;15.10;99.90
11093;DHT22;5600;50.864;6.102;2023-04-15T12:32:46;15.10;99.90
11093;DHT22;5600;50.864;6.102;2023-04-15T12:35:48;15.10;99.90
11093;DHT22;5600;50.864;6.102;2023-04-15T12:38:49;15.30;99.90
11093;DHT22;5600;50.864;6.102;2023-04-15T12:41:50;15.30;99.90
11093;DHT22;5600;50.864;6.102;2023-04-15T12:44:51;15.30;99.90
11093;DHT22;5600;50.864;6.102;2023-04-15T12:47:51;15.30;99.90
11093;DHT22;5600;50.864;6.102;2023-04-15T12:50:52;15.40;99.90
11093;DHT22;5600;50.864;6.102;2023-04-15T12:53:53;15.30;99.90
11093;DHT22;5600;50.864;6.102;2023-04-15T12:56:54;15.60;99.90
11093;DHT22;5600;50.864;6.102;2023-04-15T12:59:55;15.80;99.90
11093;DHT22;5600;50.864;6.102;2023-04-15T13:02:56;16.00;99.90
11093;DHT22;5600;50.864;6.102;2023-04-15T13:05:57;15.90;99.90
11093;DHT22;5600;50.864;6.102;2023-04-15T13:09:01;15.90;99.90
11093;DHT22;5600;50.864;6.102;2023-04-15T13:12:03;16.10;99.90
11093;DHT22;5600;50.864;6.102;2023-04-15T13:15:05;16.10;99.90
11093;DHT22;5600;50.864;6.102;2023-04-15T13:18:06;16.20;99.90
11093;DHT22;5600;50.864;6.102;2023-04-15T13:21:07;16.20;99.90
11093;DHT22;5600;50.864;6.102;2023-04-15T13:24:10;16.10;99.90
11093;DHT22;5600;50.864;6.102;2023-04-15T13:27:11;16.10;99.90
11093;DHT22;5600;50.864;6.102;2023-04-15T13:30:11;16.00;99.90
11093;DHT22;5600;50.864;6.102;2023-04-15T13:33:12;15.90;99.90
11093;DHT22;5600;50.864;6.102;2023-04-15T13:36:13;15.90;99.90
11093;DHT22;5600;50.864;6.102;2023-04-15T13:39:14;15.80;99.90
11093;DHT22;5600;50.864;6.102;2023-04-15T13:42:15;16.00;99.90
11093;DHT22;5600;50.864;6.102;2023-04-15T13:45:15;16.20;99.90
11093;DHT22;5600;50.864;6.102;2023-04-15T13:48:16;16.00;99.90
11093;DHT22;5600;50.864;6.102;2023-04-15T13:51:17;15.80;99.90
11093;DHT22;5600;50.864;6.102;2023-04-15T13:54:18;15.70;99.90
11093;DHT22;5600;50.864;6.102;2023-04-15T13:57:18;15.60;99.90
11093;DHT22;5600;50.864;6.102;2023-04-15T14:00:19;15.50;99.90
11093;DHT22;5600;50.864;6.102;2023-04-15T14:03:20;15.30;99.90
11093;DHT22;5600;50.864;6.102;2023-04-15T14:06:21;15.30;99.90
11093;DHT22;5600;50.864;6.102;2023-04-15T14:09:21;15.20;99.90
11093;DHT22;5600;50.864;6.102;2023-04-15T14:12:23;15.40;99.90
11093;DHT22;5600;50.864;6.102;2023-04-15T14:15:24;15.40;99.90
11093;DHT22;5600;50.864;6.102;2023-04-15T14:21:26;14.90;99.90
11093;DHT22;5600;50.864;6.102;2023-04-15T14:24:31;14.80;99.90
11093;DHT22;5600;50.864;6.102;2023-04-15T14:27:32;14.90;99.90
11093;DHT22;5600;50.864;6.102;2023-04-15T14:33:34;14.80;99.90
11093;DHT22;5600;50.864;6.102;2023-04-15T14:36:34;14.90;99.90
11093;DHT22;5600;50.864;6.102;2023-04-15T14:42:36;15.20;99.90
11093;DHT22;5600;50.864;6.102;2023-04-15T14:45:37;15.30;99.90
11093;DHT22;5600;50.864;6.102;2023-04-15T14:48:38;15.30;99.90
11093;DHT22;5600;50.864;6.102;2023-04-15T14:51:39;15.20;99.90
11093;DHT22;5600;50.864;6.102;2023-04-15T14:54:40;15.00;99.90
11093;DHT22;5600;50.864;6.102;2023-04-15T14:57:41;15.00;99.90
11093;DHT22;5600;50.864;6.102;2023-04-15T15:00:42;14.80;99.90
11093;DHT22;5600;50.864;6.102;2023-04-15T15:03:44;14.80;99.90
11093;DHT22;5600;50.864;6.102;2023-04-15T15:06:45;14.70;99.90
11093;DHT22;5600;50.864;6.102;2023-04-15T15:09:46;14.70;99.90
11093;DHT22;5600;50.864;6.102;2023-04-15T15:12:47;14.60;99.90
11093;DHT22;5600;50.864;6.102;2023-04-15T15:15:48;14.40;99.90
11093;DHT22;5600;50.864;6.102;2023-04-15T15:18:49;14.30;99.90
11093;DHT22;5600;50.864;6.102;2023-04-15T15:21:50;14.60;99.90
11093;DHT22;5600;50.864;6.102;2023-04-15T15:24:51;14.70;99.90
11093;DHT22;5600;50.864;6.102;2023-04-15T15:27:52;14.60;99.90
11093;DHT22;5600;50.864;6.102;2023-04-15T15:30:53;14.60;99.90
11093;DHT22;5600;50.864;6.102;2023-04-15T15:33:54;14.50;99.90
11093;DHT22;5600;50.864;6.102;2023-04-15T15:36:55;14.80;99.90
11093;DHT22;5600;50.864;6.102;2023-04-15T15:39:56;16.00;99.90
11093;DHT22;5600;50.864;6.102;2023-04-15T15:42:57;15.90;99.90
11093;DHT22;5600;50.864;6.102;2023-04-15T15:45:58;16.30;99.90
11093;DHT22;5600;50.864;6.102;2023-04-15T15:48:59;16.60;99.90
11093;DHT22;5600;50.864;6.102;2023-04-15T15:52:01;15.60;99.90
11093;DHT22;5600;50.864;6.102;2023-04-15T15:55:02;15.00;99.90
11093;DHT22;5600;50.864;6.102;2023-04-15T15:58:03;16.50;99.90
11093;DHT22;5600;50.864;6.102;2023-04-15T16:01:04;16.40;99.90
11093;DHT22;5600;50.864;6.102;2023-04-15T16:04:05;15.70;99.90
11093;DHT22;5600;50.864;6.102;2023-04-15T16:07:06;15.70;99.90
11093;DHT22;5600;50.864;6.102;2023-04-15T16:10:07;15.50;99.90
11093;DHT22;5600;50.864;6.102;2023-04-15T16:13:08;15.30;99.90
11093;DHT22;5600;50.864;6.102;2023-04-15T16:16:10;15.20;99.90
11093;DHT22;5600;50.864;6.102;2023-04-15T16:19:10;14.80;99.90
11093;DHT22;5600;50.864;6.102;2023-04-15T16:22:11;14.80;99.90
11093;DHT22;5600;50.864;6.102;2023-04-15T16:25:12;14.60;99.90
11093;DHT22;5600;50.864;6.102;2023-04-15T16:28:13;14.40;99.90
11093;DHT22;5600;50.864;6.102;2023-04-15T16:31:14;14.30;99.90
11093;DHT22;5600;50.864;6.102;2023-04-15T16:34:15;14.20;99.90
11093;DHT22;5600;50.864;6.102;2023-04-15T16:37:17;14.00;99.90
11093;DHT22;5600;50.864;6.102;2023-04-15T16:40:17;14.00;99.90
11093;DHT22;5600;50.864;6.102;2023-04-15T16:46:19;13.60;99.90
11093;DHT22;5600;50.864;6.102;2023-04-15T16:49:20;13.60;99.90
11093;DHT22;5600;50.864;6.102;2023-04-15T16:52:21;13.50;99.90
11093;DHT22;5600;50.864;6.102;2023-04-15T16:55:22;13.40;99.90
11093;DHT22;5600;50.864;6.102;2023-04-15T16:58:22;13.30;99.90
11093;DHT22;5600;50.864;6.102;2023-04-15T17:04:24;13.10;99.90
11093;DHT22;5600;50.864;6.102;2023-04-15T17:07:25;13.00;99.90
11093;DHT22;5600;50.864;6.102;2023-04-15T17:13:27;12.90;99.90
11093;DHT22;5600;50.864;6.102;2023-04-15T17:16:27;12.80;99.90
11093;DHT22;5600;50.864;6.102;2023-04-15T17:19:28;12.70;99.90
11093;DHT22;5600;50.864;6.102;2023-04-15T17:22:29;12.60;99.90
11093;DHT22;5600;50.864;6.102;2023-04-15T17:28:31;12.50;99.90
11093;DHT22;5600;50.864;6.102;2023-04-15T17:31:32;12.40;99.90
11093;DHT22;5600;50.864;6.102;2023-04-15T17:34:32;12.30;99.90
11093;DHT22;5600;50.864;6.102;2023-04-15T17:37:33;12.20;99.90
11093;DHT22;5600;50.864;6.102;2023-04-15T17:40:34;12.10;99.90
11093;DHT22;5600;50.864;6.102;2023-04-15T17:43:35;12.00;99.90
11093;DHT22;5600;50.864;6.102;2023-04-15T17:46:36;12.00;99.90
11093;DHT22;5600;50.864;6.102;2023-04-15T17:52:37;11.80;99.90
11093;DHT22;5600;50.864;6.102;2023-04-15T17:55:38;11.80;99.90
11093;DHT22;5600;50.864;6.102;2023-04-15T17:58:39;11.60;99.90
11093;DHT22;5600;50.864;6.102;2023-04-15T18:01:40;11.70;99.90
11093;DHT22;5600;50.864;6.102;2023-04-15T18:04:42;11.60;99.90
11093;DHT22;5600;50.864;6.102;2023-04-15T18:07:42;11.60;99.90
11093;DHT22;5600;50.864;6.102;2023-04-15T18:10:44;11.50;99.90
11093;DHT22;5600;50.864;6.102;2023-04-15T18:13:44;11.50;99.90
11093;DHT22;5600;50.864;6.102;2023-04-15T18:16:45;11.40;99.90
11093;DHT22;5600;50.864;6.102;2023-04-15T18:19:47;11.40;99.90
11093;DHT22;5600;50.864;6.102;2023-04-15T18:22:48;11.40;99.90
11093;DHT22;5600;50.864;6.102;2023-04-15T18:25:48;11.30;99.90
11093;DHT22;5600;50.864;6.102;2023-04-15T18:28:49;11.30;99.90
11093;DHT22;5600;50.864;6.102;2023-04-15T18:31:51;11.30;99.90
11093;DHT22;5600;50.864;6.102;2023-04-15T18:37:57;11.10;99.90
11093;DHT22;5600;50.864;6.102;2023-04-15T18:40:58;11.10;99.90
11093;DHT22;5600;50.864;6.102;2023-04-15T18:43:59;11.10;99.90
11093;DHT22;5600;50.864;6.102;2023-04-15T18:56:03;10.70;99.90
11093;DHT22;5600;50.864;6.102;2023-04-15T18:59:04;10.70;99.90
11093;DHT22;5600;50.864;6.102;2023-04-15T19:02:05;10.60;99.90
11093;DHT22;5600;50.864;6.102;2023-04-15T19:05:07;10.50;99.90
11093;DHT22;5600;50.864;6.102;2023-04-15T19:08:08;10.50;99.90
11093;DHT22;5600;50.864;6.102;2023-04-15T19:11:09;10.50;99.90
11093;DHT22;5600;50.864;6.102;2023-04-15T19:14:10;10.40;99.90
11093;DHT22;5600;50.864;6.102;2023-04-15T19:17:11;10.40;99.90
11093;DHT22;5600;50.864;6.102;2023-04-15T19:20:11;10.30;99.90
11093;DHT22;5600;50.864;6.102;2023-04-15T19:23:12;10.30;99.90
11093;DHT22;5600;50.864;6.102;2023-04-15T19:32:15;10.20;99.90
11093;DHT22;5600;50.864;6.102;2023-04-15T19:35:15;10.20;99.90
11093;DHT22;5600;50.864;6.102;2023-04-15T19:41:17;9.90;99.90
11093;DHT22;5600;50.864;6.102;2023-04-15T19:44:18;9.90;99.90
11093;DHT22;5600;50.864;6.102;2023-04-15T19:47:18;9.80;99.90
11093;DHT22;5600;50.864;6.102;2023-04-15T19:50:19;9.80;99.90
11093;DHT22;5600;50.864;6.102;2023-04-15T19:56:26;9.80;99.90
11093;DHT22;5600;50.864;6.102;2023-04-15T19:59:27;9.80;99.90
11093;DHT22;5600;50.864;6.102;2023-04-15T20:02:28;9.80;99.90
11093;DHT22;5600;50.864;6.102;2023-04-15T20:05:29;9.80;99.90
11093;DHT22;5600;50.864;6.102;2023-04-15T20:11:30;9.80;99.90
11093;DHT22;5600;50.864;6.102;2023-04-15T20:17:32;9.70;99.90
11093;DHT22;5600;50.864;6.102;2023-04-15T20:20:33;9.60;99.90
11093;DHT22;5600;50.864;6.102;2023-04-15T20:23:34;9.60;99.90
11093;DHT22;5600;50.864;6.102;2023-04-15T20:26:36;9.50;99.90
11093;DHT22;5600;50.864;6.102;2023-04-15T20:29:36;9.40;99.90
11093;DHT22;5600;50.864;6.102;2023-04-15T20:32:37;9.40;99.90
11093;DHT22;5600;50.864;6.102;2023-04-15T20:35:38;9.30;99.90
11093;DHT22;5600;50.864;6.102;2023-04-15T20:38:38;9.30;99.90
11093;DHT22;5600;50.864;6.102;2023-04-15T20:47:41;9.00;99.90
11093;DHT22;5600;50.864;6.102;2023-04-15T20:50:42;8.90;99.90
11093;DHT22;5600;50.864;6.102;2023-04-15T20:53:42;8.70;99.90
11093;DHT22;5600;50.864;6.102;2023-04-15T20:56:43;8.70;99.90
11093;DHT22;5600;50.864;6.102;2023-04-15T20:59:45;8.70;99.90
11093;DHT22;5600;50.864;6.102;2023-04-15T21:05:47;8.60;99.90
11093;DHT22;5600;50.864;6.102;2023-04-15T21:08:47;8.50;99.90
11093;DHT22;5600;50.864;6.102;2023-04-15T21:11:48;8.30;99.90
11093;DHT22;5600;50.864;6.102;2023-04-15T21:14:49;8.30;99.90
11093;DHT22;5600;50.864;6.102;2023-04-15T21:17:50;8.40;99.90
11093;DHT22;5600;50.864;6.102;2023-04-15T21:20:58;8.40;99.90
11093;DHT22;5600;50.864;6.102;2023-04-15T21:23:58;8.30;99.90
11093;DHT22;5600;50.864;6.102;2023-04-15T21:26:59;8.30;99.90
11093;DHT22;5600;50.864;6.102;2023-04-15T21:30:01;8.30;99.90
11093;DHT22;5600;50.864;6.102;2023-04-15T21:33:02;8.30;99.90
11093;DHT22;5600;50.864;6.102;2023-04-15T21:39:04;8.10;99.90
11093;DHT22;5600;50.864;6.102;2023-04-15T21:42:05;8.00;99.90
11093;DHT22;5600;50.864;6.102;2023-04-15T21:45:05;8.00;99.90
11093;DHT22;5600;50.864;6.102;2023-04-15T21:48:06;7.90;99.90
11093;DHT22;5600;50.864;6.102;2023-04-15T21:51:07;7.90;99.90
11093;DHT22;5600;50.864;6.102;2023-04-15T21:54:08;7.80;99.90
11093;DHT22;5600;50.864;6.102;2023-04-15T21:57:08;7.90;99.90
11093;DHT22;5600;50.864;6.102;2023-04-15T22:00:09;7.80;99.90
11093;DHT22;5600;50.864;6.102;2023-04-15T22:03:10;7.90;99.90
11093;DHT22;5600;50.864;6.102;2023-04-15T22:09:13;7.80;99.90
11093;DHT22;5600;50.864;6.102;2023-04-15T22:12:13;7.80;99.90
11093;DHT22;5600;50.864;6.102;2023-04-15T22:15:14;7.70;99.90
11093;DHT22;5600;50.864;6.102;2023-04-15T22:21:17;7.70;99.90
11093;DHT22;5600;50.864;6.102;2023-04-15T22:24:17;7.70;99.90
11093;DHT22;5600;50.864;6.102;2023-04-15T22:27:18;7.70;99.90
11093;DHT22;5600;50.864;6.102;2023-04-15T22:30:19;7.80;99.90
11093;DHT22;5600;50.864;6.102;2023-04-15T22:39:22;7.70;99.90
11093;DHT22;5600;50.864;6.102;2023-04-15T22:42:22;7.70;99.90
11093;DHT22;5600;50.864;6.102;2023-04-15T22:48:24;7.80;99.90
11093;DHT22;5600;50.864;6.102;2023-04-15T22:51:25;7.80;99.90
11093;DHT22;5600;50.864;6.102;2023-04-15T22:54:27;7.80;99.90
11093;DHT22;5600;50.864;6.102;2023-04-15T22:57:28;7.80;99.90
11093;DHT22;5600;50.864;6.102;2023-04-15T23:00:28;7.70;99.90
11093;DHT22;5600;50.864;6.102;2023-04-15T23:03:29;7.60;99.90
11093;DHT22;5600;50.864;6.102;2023-04-15T23:06:29;7.60;99.90
11093;DHT22;5600;50.864;6.102;2023-04-15T23:18:33;7.70;99.90
11093;DHT22;5600;50.864;6.102;2023-04-15T23:21:34;7.70;99.90
11093;DHT22;5600;50.864;6.102;2023-04-15T23:28:57;7.70;99.90
11093;DHT22;5600;50.864;6.102;2023-04-15T23:31:57;7.70;99.90
11093;DHT22;5600;50.864;6.102;2023-04-15T23:34:58;7.70;99.90
11093;DHT22;5600;50.864;6.102;2023-04-15T23:44:01;7.70;99.90
11093;DHT22;5600;50.864;6.102;2023-04-15T23:47:01;7.60;99.90
11093;DHT22;5600;50.864;6.102;2023-04-15T23:50:02;7.70;99.90
11093;DHT22;5600;50.864;6.102;2023-04-15T23:53:03;7.70;99.90
11093;DHT22;5600;50.864;6.102;2023-04-15T23:59:05;7.60;99.90
